CheckWX is a tool to help pilots better visualize weather data.  It is not intended as a substitute for an official pre-flight weather briefing.

21:38:48 UTC

KMHR TAF
Sacramento Mather Airport
Sacramento, California, USA
KMHR 201733Z 2018/2118 17013KT P6SM SHRA BKN050 TEMPO 2020/2024 3SM -TSRA OVC035CB FM210300 19005KT P6SM BKN050

Mar-20@
18:00 UTC

Mar-20 @ 18:00 UTC

Mar-21@
03:00 UTC

Mar-21 @ 03:00 UTC

KMHR 201733Z 2018/2118 17013KT P6SM SHRA BKN050
Wind
  • 170° at 13 KTS
Conditions
Rain
Cloud Levels
  • Broken at 5,000' AGL

Mar-20@
20:00 UTC

Mar-20 @ 20:00 UTC

Mar-21@
00:00 UTC

Mar-21 @ 00:00 UTC

TEMPO 2020/2024 3SM -TSRA OVC035CB

Temporary

Temporary Changes expected for less than half the time period

Conditions
Light Thunderstorm, Light Rain
Cloud Levels
  • Overcast at 3,500' AGL

Mar-21@
03:00 UTC

Mar-21 @ 03:00 UTC

Mar-21@
18:00 UTC

Mar-21 @ 18:00 UTC

FM210300 19005KT P6SM BKN050

From

From Standard forecast or significant change

Wind
  • 190° at 5 KTS
Cloud Levels
  • Broken at 5,000' AGL